sensor_id;sensor_type;location;lat;lon;timestamp;temperature;humidity
47825;DHT22;33589;48.242;14.676;2023-08-06T00:00:09;19.20;70.50
47825;DHT22;33589;48.242;14.676;2023-08-06T00:02:34;19.10;71.10
47825;DHT22;33589;48.242;14.676;2023-08-06T00:05:00;19.00;71.70
47825;DHT22;33589;48.242;14.676;2023-08-06T00:07:26;19.10;71.70
47825;DHT22;33589;48.242;14.676;2023-08-06T00:09:51;19.20;71.10
47825;DHT22;33589;48.242;14.676;2023-08-06T00:12:17;19.10;70.10
47825;DHT22;33589;48.242;14.676;2023-08-06T00:14:43;19.00;70.30
47825;DHT22;33589;48.242;14.676;2023-08-06T00:17:09;19.00;71.00
47825;DHT22;33589;48.242;14.676;2023-08-06T00:19:34;19.00;71.20
47825;DHT22;33589;48.242;14.676;2023-08-06T00:22:00;18.90;71.20
47825;DHT22;33589;48.242;14.676;2023-08-06T00:24:27;18.90;69.40
47825;DHT22;33589;48.242;14.676;2023-08-06T00:26:53;18.90;69.40
47825;DHT22;33589;48.242;14.676;2023-08-06T00:29:18;18.80;69.60
47825;DHT22;33589;48.242;14.676;2023-08-06T00:31:44;18.90;69.50
47825;DHT22;33589;48.242;14.676;2023-08-06T00:34:10;18.80;68.30
47825;DHT22;33589;48.242;14.676;2023-08-06T00:36:36;18.80;69.10
47825;DHT22;33589;48.242;14.676;2023-08-06T00:39:02;18.80;69.80
47825;DHT22;33589;48.242;14.676;2023-08-06T00:41:28;18.90;69.90
47825;DHT22;33589;48.242;14.676;2023-08-06T00:43:54;18.90;69.10
47825;DHT22;33589;48.242;14.676;2023-08-06T00:46:20;19.00;68.70
47825;DHT22;33589;48.242;14.676;2023-08-06T00:48:46;18.90;69.10
47825;DHT22;33589;48.242;14.676;2023-08-06T00:51:12;18.90;70.10
47825;DHT22;33589;48.242;14.676;2023-08-06T00:53:39;18.90;69.70
47825;DHT22;33589;48.242;14.676;2023-08-06T00:56:06;19.00;69.00
47825;DHT22;33589;48.242;14.676;2023-08-06T00:58:33;19.00;68.50
47825;DHT22;33589;48.242;14.676;2023-08-06T01:00:59;19.20;68.50
47825;DHT22;33589;48.242;14.676;2023-08-06T01:03:25;19.00;68.70
47825;DHT22;33589;48.242;14.676;2023-08-06T01:05:51;19.00;68.30
47825;DHT22;33589;48.242;14.676;2023-08-06T01:14:10;19.10;69.10
47825;DHT22;33589;48.242;14.676;2023-08-06T01:16:39;19.20;69.20
47825;DHT22;33589;48.242;14.676;2023-08-06T01:19:15;18.90;68.90
47825;DHT22;33589;48.242;14.676;2023-08-06T01:21:40;18.90;69.70
47825;DHT22;33589;48.242;14.676;2023-08-06T01:24:06;18.80;69.60
47825;DHT22;33589;48.242;14.676;2023-08-06T01:26:51;18.80;69.00
47825;DHT22;33589;48.242;14.676;2023-08-06T01:29:45;18.70;69.80
47825;DHT22;33589;48.242;14.676;2023-08-06T01:32:14;18.60;70.90
47825;DHT22;33589;48.242;14.676;2023-08-06T01:34:41;18.60;70.40
47825;DHT22;33589;48.242;14.676;2023-08-06T01:37:09;18.60;71.50
47825;DHT22;33589;48.242;14.676;2023-08-06T01:39:36;18.60;71.20
47825;DHT22;33589;48.242;14.676;2023-08-06T01:42:03;18.60;71.80
47825;DHT22;33589;48.242;14.676;2023-08-06T01:44:29;18.60;72.60
47825;DHT22;33589;48.242;14.676;2023-08-06T01:46:55;18.60;73.20
47825;DHT22;33589;48.242;14.676;2023-08-06T01:49:20;18.50;72.50
47825;DHT22;33589;48.242;14.676;2023-08-06T01:51:46;18.70;73.30
47825;DHT22;33589;48.242;14.676;2023-08-06T01:54:11;18.50;73.20
47825;DHT22;33589;48.242;14.676;2023-08-06T01:56:37;18.40;73.80
47825;DHT22;33589;48.242;14.676;2023-08-06T01:59:03;18.30;74.10
47825;DHT22;33589;48.242;14.676;2023-08-06T02:01:28;18.30;74.90
47825;DHT22;33589;48.242;14.676;2023-08-06T02:03:54;18.20;76.30
47825;DHT22;33589;48.242;14.676;2023-08-06T02:06:20;18.00;76.30
47825;DHT22;33589;48.242;14.676;2023-08-06T02:08:45;18.20;78.70
47825;DHT22;33589;48.242;14.676;2023-08-06T02:11:13;18.00;77.90
47825;DHT22;33589;48.242;14.676;2023-08-06T02:13:39;18.00;77.60
47825;DHT22;33589;48.242;14.676;2023-08-06T02:16:07;18.00;78.10
47825;DHT22;33589;48.242;14.676;2023-08-06T02:18:35;18.00;78.40
47825;DHT22;33589;48.242;14.676;2023-08-06T02:21:01;18.00;78.80
47825;DHT22;33589;48.242;14.676;2023-08-06T02:23:28;18.00;77.30
47825;DHT22;33589;48.242;14.676;2023-08-06T02:26:00;18.10;77.80
47825;DHT22;33589;48.242;14.676;2023-08-06T02:28:27;18.10;77.40
47825;DHT22;33589;48.242;14.676;2023-08-06T02:30:53;18.20;76.30
47825;DHT22;33589;48.242;14.676;2023-08-06T02:33:19;18.10;75.70
47825;DHT22;33589;48.242;14.676;2023-08-06T02:35:44;18.00;75.20
47825;DHT22;33589;48.242;14.676;2023-08-06T02:38:10;17.90;75.30
47825;DHT22;33589;48.242;14.676;2023-08-06T02:40:36;17.90;75.80
47825;DHT22;33589;48.242;14.676;2023-08-06T02:43:01;17.90;75.30
47825;DHT22;33589;48.242;14.676;2023-08-06T02:45:28;18.00;73.70
47825;DHT22;33589;48.242;14.676;2023-08-06T02:47:54;18.00;75.20
47825;DHT22;33589;48.242;14.676;2023-08-06T02:50:19;18.10;75.20
47825;DHT22;33589;48.242;14.676;2023-08-06T02:52:45;18.30;76.20
47825;DHT22;33589;48.242;14.676;2023-08-06T02:55:11;18.20;77.10
47825;DHT22;33589;48.242;14.676;2023-08-06T02:57:41;18.20;78.80
47825;DHT22;33589;48.242;14.676;2023-08-06T03:00:07;18.20;78.50
47825;DHT22;33589;48.242;14.676;2023-08-06T03:02:33;18.10;79.90
47825;DHT22;33589;48.242;14.676;2023-08-06T03:05:05;18.10;79.30
47825;DHT22;33589;48.242;14.676;2023-08-06T03:07:35;17.90;79.80
47825;DHT22;33589;48.242;14.676;2023-08-06T03:10:09;17.80;80.00
47825;DHT22;33589;48.242;14.676;2023-08-06T03:12:35;17.80;79.80
47825;DHT22;33589;48.242;14.676;2023-08-06T03:15:04;17.80;79.60
47825;DHT22;33589;48.242;14.676;2023-08-06T03:17:30;17.80;79.00
47825;DHT22;33589;48.242;14.676;2023-08-06T03:19:56;17.70;79.60
47825;DHT22;33589;48.242;14.676;2023-08-06T03:22:23;17.70;79.00
47825;DHT22;33589;48.242;14.676;2023-08-06T03:24:50;17.60;77.70
47825;DHT22;33589;48.242;14.676;2023-08-06T03:27:18;17.70;76.80
47825;DHT22;33589;48.242;14.676;2023-08-06T03:29:44;17.60;76.70
47825;DHT22;33589;48.242;14.676;2023-08-06T03:32:09;17.50;76.60
47825;DHT22;33589;48.242;14.676;2023-08-06T03:34:35;17.60;75.80
47825;DHT22;33589;48.242;14.676;2023-08-06T03:37:01;17.20;77.50
47825;DHT22;33589;48.242;14.676;2023-08-06T03:39:27;17.10;78.50
47825;DHT22;33589;48.242;14.676;2023-08-06T03:41:52;17.20;79.20
47825;DHT22;33589;48.242;14.676;2023-08-06T03:44:18;17.20;79.10
47825;DHT22;33589;48.242;14.676;2023-08-06T03:46:44;17.30;78.20
47825;DHT22;33589;48.242;14.676;2023-08-06T03:49:10;17.30;78.20
47825;DHT22;33589;48.242;14.676;2023-08-06T03:51:36;17.30;76.20
47825;DHT22;33589;48.242;14.676;2023-08-06T03:54:02;17.30;73.70
47825;DHT22;33589;48.242;14.676;2023-08-06T03:56:27;17.30;73.30
47825;DHT22;33589;48.242;14.676;2023-08-06T03:58:53;17.30;73.30
47825;DHT22;33589;48.242;14.676;2023-08-06T04:01:19;17.30;73.60
47825;DHT22;33589;48.242;14.676;2023-08-06T04:03:46;17.30;73.20
47825;DHT22;33589;48.242;14.676;2023-08-06T04:06:12;17.30;73.50
47825;DHT22;33589;48.242;14.676;2023-08-06T04:08:38;17.30;72.50
47825;DHT22;33589;48.242;14.676;2023-08-06T04:11:03;17.40;72.90
47825;DHT22;33589;48.242;14.676;2023-08-06T04:13:29;17.40;73.00
47825;DHT22;33589;48.242;14.676;2023-08-06T04:16:03;17.40;73.00
47825;DHT22;33589;48.242;14.676;2023-08-06T04:18:30;17.30;73.20
47825;DHT22;33589;48.242;14.676;2023-08-06T04:20:56;17.40;72.70
47825;DHT22;33589;48.242;14.676;2023-08-06T04:23:23;17.30;72.40
47825;DHT22;33589;48.242;14.676;2023-08-06T04:25:49;17.30;72.70
47825;DHT22;33589;48.242;14.676;2023-08-06T04:28:15;17.40;72.90
47825;DHT22;33589;48.242;14.676;2023-08-06T04:30:41;17.40;73.20
47825;DHT22;33589;48.242;14.676;2023-08-06T04:33:07;17.50;73.70
47825;DHT22;33589;48.242;14.676;2023-08-06T04:35:34;17.40;75.80
47825;DHT22;33589;48.242;14.676;2023-08-06T04:38:00;17.30;77.20
47825;DHT22;33589;48.242;14.676;2023-08-06T04:40:25;17.30;78.70
47825;DHT22;33589;48.242;14.676;2023-08-06T04:42:51;17.20;79.60
47825;DHT22;33589;48.242;14.676;2023-08-06T04:45:18;17.10;78.60
47825;DHT22;33589;48.242;14.676;2023-08-06T04:47:43;16.90;78.50
47825;DHT22;33589;48.242;14.676;2023-08-06T04:50:09;16.70;77.80
47825;DHT22;33589;48.242;14.676;2023-08-06T04:52:35;16.70;79.80
47825;DHT22;33589;48.242;14.676;2023-08-06T04:55:01;16.60;82.40
47825;DHT22;33589;48.242;14.676;2023-08-06T04:57:27;16.60;82.40
47825;DHT22;33589;48.242;14.676;2023-08-06T04:59:53;16.40;85.10
47825;DHT22;33589;48.242;14.676;2023-08-06T05:02:18;16.30;86.40
47825;DHT22;33589;48.242;14.676;2023-08-06T05:04:44;16.20;86.50
47825;DHT22;33589;48.242;14.676;2023-08-06T05:07:10;16.40;89.50
47825;DHT22;33589;48.242;14.676;2023-08-06T05:09:36;16.30;90.50
47825;DHT22;33589;48.242;14.676;2023-08-06T05:12:01;16.40;91.40
47825;DHT22;33589;48.242;14.676;2023-08-06T05:14:27;16.40;90.90
47825;DHT22;33589;48.242;14.676;2023-08-06T05:16:53;16.30;91.70
47825;DHT22;33589;48.242;14.676;2023-08-06T05:19:19;16.30;91.70
47825;DHT22;33589;48.242;14.676;2023-08-06T05:21:44;16.30;92.10
47825;DHT22;33589;48.242;14.676;2023-08-06T05:24:10;16.30;91.90
47825;DHT22;33589;48.242;14.676;2023-08-06T05:26:35;16.40;90.80
47825;DHT22;33589;48.242;14.676;2023-08-06T05:29:01;16.30;90.30
47825;DHT22;33589;48.242;14.676;2023-08-06T05:31:27;16.20;89.20
47825;DHT22;33589;48.242;14.676;2023-08-06T05:33:54;16.00;86.70
47825;DHT22;33589;48.242;14.676;2023-08-06T05:36:20;15.90;87.30
47825;DHT22;33589;48.242;14.676;2023-08-06T05:38:46;16.10;86.30
47825;DHT22;33589;48.242;14.676;2023-08-06T05:41:12;15.90;92.30
47825;DHT22;33589;48.242;14.676;2023-08-06T05:43:38;15.80;92.00
47825;DHT22;33589;48.242;14.676;2023-08-06T05:46:03;15.90;92.40
47825;DHT22;33589;48.242;14.676;2023-08-06T05:48:29;15.90;92.30
47825;DHT22;33589;48.242;14.676;2023-08-06T05:50:55;16.10;92.20
47825;DHT22;33589;48.242;14.676;2023-08-06T05:53:21;16.20;92.30
47825;DHT22;33589;48.242;14.676;2023-08-06T05:55:47;16.10;91.50
47825;DHT22;33589;48.242;14.676;2023-08-06T05:58:13;16.20;91.80
47825;DHT22;33589;48.242;14.676;2023-08-06T06:00:38;17.10;90.70
47825;DHT22;33589;48.242;14.676;2023-08-06T06:03:04;18.70;90.50
47825;DHT22;33589;48.242;14.676;2023-08-06T06:05:29;19.70;88.20
47825;DHT22;33589;48.242;14.676;2023-08-06T06:07:55;20.50;87.20
47825;DHT22;33589;48.242;14.676;2023-08-06T06:10:21;21.60;84.10
47825;DHT22;33589;48.242;14.676;2023-08-06T06:12:46;22.70;79.80
47825;DHT22;33589;48.242;14.676;2023-08-06T06:15:12;23.70;76.80
47825;DHT22;33589;48.242;14.676;2023-08-06T06:17:37;24.70;75.20
47825;DHT22;33589;48.242;14.676;2023-08-06T06:20:03;25.60;71.00
47825;DHT22;33589;48.242;14.676;2023-08-06T06:22:30;25.40;70.50
47825;DHT22;33589;48.242;14.676;2023-08-06T06:24:56;24.10;68.80
47825;DHT22;33589;48.242;14.676;2023-08-06T06:27:21;23.50;69.30
47825;DHT22;33589;48.242;14.676;2023-08-06T06:29:47;23.00;57.00
47825;DHT22;33589;48.242;14.676;2023-08-06T06:32:12;22.10;67.90
47825;DHT22;33589;48.242;14.676;2023-08-06T06:34:38;21.30;70.10
47825;DHT22;33589;48.242;14.676;2023-08-06T06:37:04;20.80;72.10
47825;DHT22;33589;48.242;14.676;2023-08-06T06:39:30;20.50;72.70
47825;DHT22;33589;48.242;14.676;2023-08-06T06:41:55;20.40;74.00
47825;DHT22;33589;48.242;14.676;2023-08-06T06:44:29;20.10;74.00
47825;DHT22;33589;48.242;14.676;2023-08-06T06:46:55;19.80;73.20
47825;DHT22;33589;48.242;14.676;2023-08-06T06:49:21;19.70;68.60
47825;DHT22;33589;48.242;14.676;2023-08-06T06:51:46;19.50;68.50
47825;DHT22;33589;48.242;14.676;2023-08-06T06:54:12;19.50;68.10
47825;DHT22;33589;48.242;14.676;2023-08-06T06:56:37;19.60;67.50
47825;DHT22;33589;48.242;14.676;2023-08-06T06:59:03;19.50;67.50
47825;DHT22;33589;48.242;14.676;2023-08-06T07:01:29;19.40;61.90
47825;DHT22;33589;48.242;14.676;2023-08-06T07:03:54;19.30;69.50
47825;DHT22;33589;48.242;14.676;2023-08-06T07:06:20;19.40;73.20
47825;DHT22;33589;48.242;14.676;2023-08-06T07:08:46;19.20;73.70
47825;DHT22;33589;48.242;14.676;2023-08-06T07:11:11;19.40;73.60
47825;DHT22;33589;48.242;14.676;2023-08-06T07:13:37;20.10;61.20
47825;DHT22;33589;48.242;14.676;2023-08-06T07:16:03;21.80;78.50
47825;DHT22;33589;48.242;14.676;2023-08-06T07:18:29;23.00;76.30
47825;DHT22;33589;48.242;14.676;2023-08-06T07:20:55;23.60;69.90
47825;DHT22;33589;48.242;14.676;2023-08-06T07:23:23;23.10;70.90
47825;DHT22;33589;48.242;14.676;2023-08-06T07:25:49;22.40;72.30
47825;DHT22;33589;48.242;14.676;2023-08-06T07:28:15;21.70;75.40
47825;DHT22;33589;48.242;14.676;2023-08-06T07:30:42;20.90;76.00
47825;DHT22;33589;48.242;14.676;2023-08-06T07:33:08;20.30;53.90
47825;DHT22;33589;48.242;14.676;2023-08-06T07:35:34;20.00;54.40
47825;DHT22;33589;48.242;14.676;2023-08-06T07:38:00;19.70;55.10
47825;DHT22;33589;48.242;14.676;2023-08-06T07:40:26;19.50;57.00
47825;DHT22;33589;48.242;14.676;2023-08-06T07:42:51;19.10;75.40
47825;DHT22;33589;48.242;14.676;2023-08-06T07:45:17;19.20;78.30
47825;DHT22;33589;48.242;14.676;2023-08-06T07:47:43;19.10;76.70
47825;DHT22;33589;48.242;14.676;2023-08-06T07:50:09;19.00;76.90
47825;DHT22;33589;48.242;14.676;2023-08-06T07:52:35;19.10;78.50
47825;DHT22;33589;48.242;14.676;2023-08-06T07:55:01;19.70;77.40
47825;DHT22;33589;48.242;14.676;2023-08-06T07:57:30;20.00;76.60
47825;DHT22;33589;48.242;14.676;2023-08-06T07:59:56;21.40;57.00
47825;DHT22;33589;48.242;14.676;2023-08-06T08:02:22;24.00;72.60
47825;DHT22;33589;48.242;14.676;2023-08-06T08:04:47;25.80;61.70
47825;DHT22;33589;48.242;14.676;2023-08-06T08:07:13;25.50;63.00
47825;DHT22;33589;48.242;14.676;2023-08-06T08:09:39;25.90;55.10
47825;DHT22;33589;48.242;14.676;2023-08-06T08:12:05;25.70;61.40
47825;DHT22;33589;48.242;14.676;2023-08-06T08:14:31;25.00;58.20
47825;DHT22;33589;48.242;14.676;2023-08-06T08:17:04;24.80;60.90
47825;DHT22;33589;48.242;14.676;2023-08-06T08:19:31;25.00;61.90
47825;DHT22;33589;48.242;14.676;2023-08-06T08:21:57;26.70;55.90
47825;DHT22;33589;48.242;14.676;2023-08-06T08:24:23;27.70;46.60
47825;DHT22;33589;48.242;14.676;2023-08-06T08:26:50;28.00;46.40
47825;DHT22;33589;48.242;14.676;2023-08-06T08:29:16;29.30;55.70
47825;DHT22;33589;48.242;14.676;2023-08-06T08:31:41;31.10;53.30
47825;DHT22;33589;48.242;14.676;2023-08-06T08:34:09;32.40;56.00
47825;DHT22;33589;48.242;14.676;2023-08-06T08:36:34;34.00;41.60
47825;DHT22;33589;48.242;14.676;2023-08-06T08:39:00;34.00;40.50
47825;DHT22;33589;48.242;14.676;2023-08-06T08:41:28;33.60;40.00
47825;DHT22;33589;48.242;14.676;2023-08-06T08:43:56;31.50;43.70
47825;DHT22;33589;48.242;14.676;2023-08-06T08:46:24;29.70;45.60
47825;DHT22;33589;48.242;14.676;2023-08-06T08:48:49;27.80;45.50
47825;DHT22;33589;48.242;14.676;2023-08-06T08:51:15;27.80;40.70
47825;DHT22;33589;48.242;14.676;2023-08-06T08:53:43;29.10;40.80
47825;DHT22;33589;48.242;14.676;2023-08-06T08:56:12;29.30;39.40
47825;DHT22;33589;48.242;14.676;2023-08-06T08:58:38;29.80;35.90
47825;DHT22;33589;48.242;14.676;2023-08-06T09:01:04;30.50;37.00
47825;DHT22;33589;48.242;14.676;2023-08-06T09:03:32;31.10;36.00
47825;DHT22;33589;48.242;14.676;2023-08-06T09:05:59;31.30;35.10
47825;DHT22;33589;48.242;14.676;2023-08-06T09:11:09;31.30;34.30
47825;DHT22;33589;48.242;14.676;2023-08-06T09:13:38;30.70;35.00
47825;DHT22;33589;48.242;14.676;2023-08-06T09:16:04;30.30;36.90
47825;DHT22;33589;48.242;14.676;2023-08-06T09:18:30;29.40;40.40
47825;DHT22;33589;48.242;14.676;2023-08-06T09:20:57;28.30;38.70
47825;DHT22;33589;48.242;14.676;2023-08-06T09:23:30;27.60;43.20
47825;DHT22;33589;48.242;14.676;2023-08-06T09:25:56;26.70;45.50
47825;DHT22;33589;48.242;14.676;2023-08-06T09:28:22;26.10;45.40
47825;DHT22;33589;48.242;14.676;2023-08-06T09:30:50;25.10;50.80
47825;DHT22;33589;48.242;14.676;2023-08-06T09:33:18;24.30;51.20
47825;DHT22;33589;48.242;14.676;2023-08-06T09:35:46;23.60;52.50
47825;DHT22;33589;48.242;14.676;2023-08-06T09:38:12;22.90;56.90
47825;DHT22;33589;48.242;14.676;2023-08-06T09:40:39;22.40;63.40
47825;DHT22;33589;48.242;14.676;2023-08-06T09:43:05;22.30;64.90
47825;DHT22;33589;48.242;14.676;2023-08-06T09:45:32;22.20;67.20
47825;DHT22;33589;48.242;14.676;2023-08-06T09:47:59;22.40;67.70
47825;DHT22;33589;48.242;14.676;2023-08-06T09:50:30;23.90;60.00
47825;DHT22;33589;48.242;14.676;2023-08-06T09:52:57;25.00;60.10
47825;DHT22;33589;48.242;14.676;2023-08-06T09:55:23;24.90;58.70
47825;DHT22;33589;48.242;14.676;2023-08-06T09:57:51;24.60;59.30
47825;DHT22;33589;48.242;14.676;2023-08-06T10:00:17;24.40;60.40
47825;DHT22;33589;48.242;14.676;2023-08-06T10:02:45;23.80;65.30
47825;DHT22;33589;48.242;14.676;2023-08-06T10:05:11;23.30;52.60
47825;DHT22;33589;48.242;14.676;2023-08-06T10:07:37;23.10;57.30
47825;DHT22;33589;48.242;14.676;2023-08-06T10:10:06;23.00;65.20
47825;DHT22;33589;48.242;14.676;2023-08-06T10:12:39;22.90;64.90
47825;DHT22;33589;48.242;14.676;2023-08-06T10:15:09;23.10;65.10
47825;DHT22;33589;48.242;14.676;2023-08-06T10:17:37;23.90;62.40
47825;DHT22;33589;48.242;14.676;2023-08-06T10:20:08;23.40;64.40
47825;DHT22;33589;48.242;14.676;2023-08-06T10:22:34;23.50;64.30
47825;DHT22;33589;48.242;14.676;2023-08-06T10:25:03;24.40;68.80
47825;DHT22;33589;48.242;14.676;2023-08-06T10:30:28;25.00;66.70
47825;DHT22;33589;48.242;14.676;2023-08-06T10:32:55;24.60;66.10
47825;DHT22;33589;48.242;14.676;2023-08-06T10:35:30;24.70;67.20
47825;DHT22;33589;48.242;14.676;2023-08-06T10:38:10;24.80;66.90
47825;DHT22;33589;48.242;14.676;2023-08-06T10:40:39;24.70;66.60
47825;DHT22;33589;48.242;14.676;2023-08-06T10:43:05;24.10;67.40
47825;DHT22;33589;48.242;14.676;2023-08-06T10:45:36;23.30;72.20
47825;DHT22;33589;48.242;14.676;2023-08-06T10:48:03;22.70;72.20
47825;DHT22;33589;48.242;14.676;2023-08-06T10:50:30;21.90;68.90
47825;DHT22;33589;48.242;14.676;2023-08-06T10:52:57;21.80;71.20
47825;DHT22;33589;48.242;14.676;2023-08-06T10:55:28;21.80;74.00
47825;DHT22;33589;48.242;14.676;2023-08-06T10:57:55;21.90;76.70
47825;DHT22;33589;48.242;14.676;2023-08-06T11:00:24;21.70;77.40
47825;DHT22;33589;48.242;14.676;2023-08-06T11:02:51;21.90;78.00
47825;DHT22;33589;48.242;14.676;2023-08-06T11:05:17;21.70;78.50
47825;DHT22;33589;48.242;14.676;2023-08-06T11:07:43;21.80;78.60
47825;DHT22;33589;48.242;14.676;2023-08-06T11:10:10;21.50;79.40
47825;DHT22;33589;48.242;14.676;2023-08-06T11:12:36;21.60;78.60
47825;DHT22;33589;48.242;14.676;2023-08-06T11:15:03;22.10;78.40
47825;DHT22;33589;48.242;14.676;2023-08-06T11:17:32;22.50;75.10
47825;DHT22;33589;48.242;14.676;2023-08-06T11:20:03;22.70;76.60
47825;DHT22;33589;48.242;14.676;2023-08-06T11:22:29;23.00;74.70
47825;DHT22;33589;48.242;14.676;2023-08-06T11:24:55;23.10;73.00
47825;DHT22;33589;48.242;14.676;2023-08-06T11:42:38;23.40;86.60
47825;DHT22;33589;48.242;14.676;2023-08-06T11:45:04;23.50;71.60
47825;DHT22;33589;48.242;14.676;2023-08-06T11:47:30;23.60;70.50
47825;DHT22;33589;48.242;14.676;2023-08-06T11:49:56;23.90;66.90
47825;DHT22;33589;48.242;14.676;2023-08-06T11:52:23;24.20;66.20
47825;DHT22;33589;48.242;14.676;2023-08-06T11:55:06;23.80;66.20
47825;DHT22;33589;48.242;14.676;2023-08-06T11:57:34;23.70;66.30
47825;DHT22;33589;48.242;14.676;2023-08-06T12:00:13;23.40;66.80
47825;DHT22;33589;48.242;14.676;2023-08-06T12:02:42;22.70;69.20
47825;DHT22;33589;48.242;14.676;2023-08-06T12:05:12;22.60;70.50
47825;DHT22;33589;48.242;14.676;2023-08-06T12:07:46;22.90;71.10
47825;DHT22;33589;48.242;14.676;2023-08-06T12:10:13;23.20;69.70
47825;DHT22;33589;48.242;14.676;2023-08-06T12:12:38;23.30;68.10
47825;DHT22;33589;48.242;14.676;2023-08-06T12:15:05;23.90;67.10
47825;DHT22;33589;48.242;14.676;2023-08-06T12:17:34;23.90;65.50
47825;DHT22;33589;48.242;14.676;2023-08-06T12:20:00;23.70;67.90
47825;DHT22;33589;48.242;14.676;2023-08-06T12:22:26;23.40;66.40
47825;DHT22;33589;48.242;14.676;2023-08-06T12:24:52;23.50;67.00
47825;DHT22;33589;48.242;14.676;2023-08-06T12:27:18;23.40;68.50
47825;DHT22;33589;48.242;14.676;2023-08-06T12:29:45;23.60;68.30
47825;DHT22;33589;48.242;14.676;2023-08-06T12:32:11;23.80;69.60
47825;DHT22;33589;48.242;14.676;2023-08-06T12:34:38;23.60;67.20
47825;DHT22;33589;48.242;14.676;2023-08-06T12:37:05;23.70;66.30
47825;DHT22;33589;48.242;14.676;2023-08-06T12:39:31;23.90;64.30
47825;DHT22;33589;48.242;14.676;2023-08-06T12:41:58;23.90;64.00
47825;DHT22;33589;48.242;14.676;2023-08-06T12:44:24;23.80;64.50
47825;DHT22;33589;48.242;14.676;2023-08-06T12:46:51;23.50;67.40
47825;DHT22;33589;48.242;14.676;2023-08-06T12:49:18;23.50;67.10
47825;DHT22;33589;48.242;14.676;2023-08-06T12:51:43;22.60;67.00
47825;DHT22;33589;48.242;14.676;2023-08-06T12:54:09;21.70;69.50
47825;DHT22;33589;48.242;14.676;2023-08-06T12:56:35;21.00;78.90
47825;DHT22;33589;48.242;14.676;2023-08-06T12:59:00;21.10;76.30
47825;DHT22;33589;48.242;14.676;2023-08-06T13:01:26;21.40;72.00
47825;DHT22;33589;48.242;14.676;2023-08-06T13:03:51;21.70;73.10
47825;DHT22;33589;48.242;14.676;2023-08-06T13:06:17;21.70;72.90
47825;DHT22;33589;48.242;14.676;2023-08-06T13:08:43;21.70;65.30
47825;DHT22;33589;48.242;14.676;2023-08-06T13:11:09;22.20;51.20
47825;DHT22;33589;48.242;14.676;2023-08-06T13:13:35;22.40;53.90
47825;DHT22;33589;48.242;14.676;2023-08-06T13:16:00;22.50;59.30
47825;DHT22;33589;48.242;14.676;2023-08-06T13:18:26;22.40;61.20
47825;DHT22;33589;48.242;14.676;2023-08-06T13:20:55;22.20;62.90
47825;DHT22;33589;48.242;14.676;2023-08-06T13:23:21;21.90;65.00
47825;DHT22;33589;48.242;14.676;2023-08-06T13:25:46;21.70;70.00
47825;DHT22;33589;48.242;14.676;2023-08-06T13:28:12;21.60;71.90
47825;DHT22;33589;48.242;14.676;2023-08-06T13:30:39;21.70;83.50
47825;DHT22;33589;48.242;14.676;2023-08-06T13:33:09;22.00;81.90
47825;DHT22;33589;48.242;14.676;2023-08-06T13:35:34;21.90;81.90
47825;DHT22;33589;48.242;14.676;2023-08-06T13:38:00;21.70;80.00
47825;DHT22;33589;48.242;14.676;2023-08-06T13:40:28;21.40;79.30
47825;DHT22;33589;48.242;14.676;2023-08-06T13:42:55;21.40;78.60
47825;DHT22;33589;48.242;14.676;2023-08-06T13:45:21;21.50;80.50
47825;DHT22;33589;48.242;14.676;2023-08-06T13:47:47;21.40;80.20
47825;DHT22;33589;48.242;14.676;2023-08-06T13:50:13;21.10;77.50
47825;DHT22;33589;48.242;14.676;2023-08-06T13:52:39;20.90;72.20
47825;DHT22;33589;48.242;14.676;2023-08-06T13:55:05;21.10;72.60
47825;DHT22;33589;48.242;14.676;2023-08-06T13:57:31;21.00;75.10
47825;DHT22;33589;48.242;14.676;2023-08-06T13:59:57;21.00;74.20
47825;DHT22;33589;48.242;14.676;2023-08-06T14:02:22;21.20;77.10
47825;DHT22;33589;48.242;14.676;2023-08-06T14:04:48;21.00;78.20
47825;DHT22;33589;48.242;14.676;2023-08-06T14:07:14;20.90;78.30
47825;DHT22;33589;48.242;14.676;2023-08-06T14:09:39;20.90;77.20
47825;DHT22;33589;48.242;14.676;2023-08-06T14:12:06;21.10;76.20
47825;DHT22;33589;48.242;14.676;2023-08-06T14:14:31;21.10;78.20
47825;DHT22;33589;48.242;14.676;2023-08-06T14:24:21;21.20;76.20
47825;DHT22;33589;48.242;14.676;2023-08-06T14:26:47;21.20;76.30
47825;DHT22;33589;48.242;14.676;2023-08-06T14:29:13;21.30;76.60
47825;DHT22;33589;48.242;14.676;2023-08-06T14:31:40;21.30;77.20
47825;DHT22;33589;48.242;14.676;2023-08-06T14:34:05;21.40;78.90
47825;DHT22;33589;48.242;14.676;2023-08-06T14:36:31;21.50;77.90
47825;DHT22;33589;48.242;14.676;2023-08-06T14:38:57;21.50;76.90
47825;DHT22;33589;48.242;14.676;2023-08-06T14:43:50;21.90;75.30
47825;DHT22;33589;48.242;14.676;2023-08-06T14:46:16;22.10;74.20
47825;DHT22;33589;48.242;14.676;2023-08-06T14:48:41;22.20;75.20
47825;DHT22;33589;48.242;14.676;2023-08-06T14:51:08;22.20;74.60
47825;DHT22;33589;48.242;14.676;2023-08-06T14:53:34;22.00;75.00
47825;DHT22;33589;48.242;14.676;2023-08-06T14:55:59;22.00;75.70
47825;DHT22;33589;48.242;14.676;2023-08-06T14:58:25;22.20;74.10
47825;DHT22;33589;48.242;14.676;2023-08-06T15:00:51;22.30;71.90
47825;DHT22;33589;48.242;14.676;2023-08-06T15:03:16;22.30;70.80
47825;DHT22;33589;48.242;14.676;2023-08-06T15:05:48;22.30;70.80
47825;DHT22;33589;48.242;14.676;2023-08-06T15:08:14;22.30;70.10
47825;DHT22;33589;48.242;14.676;2023-08-06T15:10:40;22.00;70.80
47825;DHT22;33589;48.242;14.676;2023-08-06T15:13:06;21.80;71.70
47825;DHT22;33589;48.242;14.676;2023-08-06T15:15:32;21.90;71.00
47825;DHT22;33589;48.242;14.676;2023-08-06T15:17:57;21.70;71.50
47825;DHT22;33589;48.242;14.676;2023-08-06T15:20:24;21.50;72.60
47825;DHT22;33589;48.242;14.676;2023-08-06T15:22:50;21.30;75.00
47825;DHT22;33589;48.242;14.676;2023-08-06T15:25:15;20.80;76.80
47825;DHT22;33589;48.242;14.676;2023-08-06T15:27:41;20.70;76.70
47825;DHT22;33589;48.242;14.676;2023-08-06T15:30:07;20.60;73.00
47825;DHT22;33589;48.242;14.676;2023-08-06T15:32:33;20.50;74.00
47825;DHT22;33589;48.242;14.676;2023-08-06T15:34:59;20.80;73.40
47825;DHT22;33589;48.242;14.676;2023-08-06T15:37:24;20.80;71.30
47825;DHT22;33589;48.242;14.676;2023-08-06T15:39:51;20.90;72.50
47825;DHT22;33589;48.242;14.676;2023-08-06T15:42:17;21.10;72.80
47825;DHT22;33589;48.242;14.676;2023-08-06T15:44:43;21.10;72.70
47825;DHT22;33589;48.242;14.676;2023-08-06T15:47:08;21.10;72.30